Accueil
METAR-TAF:

METAR-TAF

Aéroports :

Julian Carroll Airport

Jackson, Kentucky, États-Unis

latitude: 37-35-29N, longitude: 083-18-52W, altitude: 421 m

Observation

Le bulletin a été fait il y a 53 minutes, à 20:53 UTC
Vent calme
Température 8°C
Humidité 71%
Pression 1024 hPa
Visibilité: 16.1 km
Ciel couvert à une hauteur de 2300 ft

METAR: KJKL 202053Z AUTO 00000KT 10SM OVC023 08/03 A3023 RMK AO2 SLP239 T00830033 53003

Heure: 16:46 (21:46 UTC)

Prévision

Le bulletin a été fait il y a 4 heures et 26 minutes, à 17:20 UTC
Prévision valable du 20 à 18 UTC au 21 à 18 UTC
Vent kt de nord
Visibilité: 10 km
Ciel couvert à une hauteur de 2100 ft
A partir de 21 à 0000 UTC
Vent kt de nord
Visibilité: 10 km
Nuages fragmentés à une hauteur de 4000 ft
A partir de 21 à 0300 UTC
Vent kt de nord
Visibilité: 10 km
Nuages épars à une hauteur de 4000 ft

TAF: KJKL 201720Z 2018/2118 00000KT P6SM OVC021 FM210000 00000KT P6SM BKN040 FM210300 00000KT P6SM SCT040

Observations et prévisions météorologiques de plus de 4000 aéroports (messages METAR et TAF).

Les stations disponibles sont représentées par des disques jaunes et rouges sur la carte.

Passer la souris dessus pour voir le nom de la station.

Cliquer dessus pour voir les observations et prévisions météorologiques.

Pour changer de carte: cliquez sur les boutons verts avec une croix noire pour zoomer, sur le bouton vert avec un tiret pour effectuer un zoom arrière, ou sur les flèches vertes pour les cartes adjacentes.


METAR-TAF: